sensor_id;sensor_type;location;lat;lon;timestamp;pressure;altitude;pressure_sealevel;temperature;humidity
44751;BME280;30477;48.224;11.470;2023-05-02T00:01:25;96110.38;;;10.48;80.37
44751;BME280;30477;48.224;11.470;2023-05-02T00:03:51;96110.25;;;10.50;80.34
44751;BME280;30477;48.224;11.470;2023-05-02T00:06:16;96109.41;;;10.49;80.22
44751;BME280;30477;48.224;11.470;2023-05-02T00:08:41;96107.91;;;10.47;80.15
44751;BME280;30477;48.224;11.470;2023-05-02T00:11:07;96104.94;;;10.32;80.17
44751;BME280;30477;48.224;11.470;2023-05-02T00:13:32;96105.63;;;10.34;80.61
44751;BME280;30477;48.224;11.470;2023-05-02T00:15:58;96108.06;;;10.35;80.48
44751;BME280;30477;48.224;11.470;2023-05-02T00:18:23;96106.28;;;10.36;80.63
44751;BME280;30477;48.224;11.470;2023-05-02T00:20:49;96106.56;;;10.43;80.56
44751;BME280;30477;48.224;11.470;2023-05-02T00:23:14;96103.84;;;10.34;80.19
44751;BME280;30477;48.224;11.470;2023-05-02T00:25:43;96103.72;;;10.36;80.33
44751;BME280;30477;48.224;11.470;2023-05-02T00:28:09;96103.72;;;10.36;80.34
44751;BME280;30477;48.224;11.470;2023-05-02T00:30:35;96103.72;;;10.36;80.29
44751;BME280;30477;48.224;11.470;2023-05-02T00:33:00;96111.72;;;10.23;79.92
44751;BME280;30477;48.224;11.470;2023-05-02T00:35:26;96100.41;;;10.24;80.23
44751;BME280;30477;48.224;11.470;2023-05-02T00:37:51;96095.38;;;10.23;80.22
44751;BME280;30477;48.224;11.470;2023-05-02T00:40:17;96096.31;;;10.22;80.24
44751;BME280;30477;48.224;11.470;2023-05-02T00:42:42;96098.22;;;10.20;79.96
44751;BME280;30477;48.224;11.470;2023-05-02T00:45:08;96106.53;;;10.13;80.27
44751;BME280;30477;48.224;11.470;2023-05-02T00:47:33;96105.44;;;10.16;80.26
44751;BME280;30477;48.224;11.470;2023-05-02T00:49:59;96105.19;;;10.19;80.23
44751;BME280;30477;48.224;11.470;2023-05-02T00:52:25;96100.94;;;10.18;79.88
44751;BME280;30477;48.224;11.470;2023-05-02T00:54:51;96099.47;;;10.15;80.11
44751;BME280;30477;48.224;11.470;2023-05-02T00:57:16;96101.09;;;10.16;79.94
44751;BME280;30477;48.224;11.470;2023-05-02T00:59:42;96108.19;;;10.14;80.09
44751;BME280;30477;48.224;11.470;2023-05-02T01:05:16;96105.59;;;10.05;79.89
44751;BME280;30477;48.224;11.470;2023-05-02T01:08:12;96103.56;;;10.08;79.70
44751;BME280;30477;48.224;11.470;2023-05-02T01:13:28;96105.56;;;9.95;79.44
44751;BME280;30477;48.224;11.470;2023-05-02T01:15:57;96114.81;;;9.88;79.92
44751;BME280;30477;48.224;11.470;2023-05-02T01:18:25;96106.09;;;9.79;79.95
44751;BME280;30477;48.224;11.470;2023-05-02T01:20:56;96110.75;;;9.85;80.17
44751;BME280;30477;48.224;11.470;2023-05-02T01:26:50;96110.31;;;9.80;80.32
44751;BME280;30477;48.224;11.470;2023-05-02T01:29:18;96117.25;;;9.80;80.34
44751;BME280;30477;48.224;11.470;2023-05-02T01:31:48;96110.84;;;9.74;80.34
44751;BME280;30477;48.224;11.470;2023-05-02T01:34:15;96112.91;;;9.70;80.26
44751;BME280;30477;48.224;11.470;2023-05-02T01:36:44;96110.84;;;9.64;80.31
44751;BME280;30477;48.224;11.470;2023-05-02T01:39:13;96110.31;;;9.70;80.42
44751;BME280;30477;48.224;11.470;2023-05-02T01:41:41;96115.72;;;9.67;80.21
44751;BME280;30477;48.224;11.470;2023-05-02T01:44:08;96113.00;;;9.59;80.36
44751;BME280;30477;48.224;11.470;2023-05-02T01:46:37;96121.44;;;9.61;80.53
44751;BME280;30477;48.224;11.470;2023-05-02T01:49:05;96121.19;;;9.64;80.43
44751;BME280;30477;48.224;11.470;2023-05-02T01:51:34;96120.22;;;9.65;80.50
44751;BME280;30477;48.224;11.470;2023-05-02T01:54:03;96123.09;;;9.62;80.25
44751;BME280;30477;48.224;11.470;2023-05-02T01:56:34;96116.78;;;9.55;80.18
44751;BME280;30477;48.224;11.470;2023-05-02T01:59:04;96127.94;;;9.46;80.46
44751;BME280;30477;48.224;11.470;2023-05-02T02:01:31;96121.09;;;9.45;80.52
44751;BME280;30477;48.224;11.470;2023-05-02T02:03:57;96123.97;;;9.42;80.51
44751;BME280;30477;48.224;11.470;2023-05-02T02:06:24;96130.88;;;9.31;80.73
44751;BME280;30477;48.224;11.470;2023-05-02T02:08:50;96135.06;;;9.23;80.51
44751;BME280;30477;48.224;11.470;2023-05-02T02:11:24;96135.47;;;9.28;81.22
44751;BME280;30477;48.224;11.470;2023-05-02T02:13:54;96132.06;;;9.27;80.96
44751;BME280;30477;48.224;11.470;2023-05-02T02:16:29;96136.03;;;9.31;81.38
44751;BME280;30477;48.224;11.470;2023-05-02T02:18:55;96142.69;;;9.34;81.20
44751;BME280;30477;48.224;11.470;2023-05-02T02:21:22;96144.22;;;9.37;81.34
44751;BME280;30477;48.224;11.470;2023-05-02T02:23:52;96145.31;;;9.44;81.23
44751;BME280;30477;48.224;11.470;2023-05-02T02:26:20;96150.09;;;9.48;80.97
44751;BME280;30477;48.224;11.470;2023-05-02T02:28:47;96148.84;;;9.43;80.85
44751;BME280;30477;48.224;11.470;2023-05-02T02:31:12;96142.06;;;9.42;80.85
44751;BME280;30477;48.224;11.470;2023-05-02T02:33:38;96147.50;;;9.39;81.00
44751;BME280;30477;48.224;11.470;2023-05-02T02:36:13;96152.69;;;9.48;81.23
44751;BME280;30477;48.224;11.470;2023-05-02T02:38:53;96145.56;;;9.41;80.67
44751;BME280;30477;48.224;11.470;2023-05-02T02:41:31;96149.63;;;9.33;80.55
44751;BME280;30477;48.224;11.470;2023-05-02T02:44:13;96156.97;;;9.28;80.72
44751;BME280;30477;48.224;11.470;2023-05-02T02:50:02;96154.44;;;9.17;81.10
44751;BME280;30477;48.224;11.470;2023-05-02T03:00:45;96167.19;;;9.09;81.35
44751;BME280;30477;48.224;11.470;2023-05-02T03:03:13;96166.50;;;9.07;81.58
44751;BME280;30477;48.224;11.470;2023-05-02T03:05:38;96161.78;;;9.12;81.60
44751;BME280;30477;48.224;11.470;2023-05-02T03:08:04;96165.44;;;9.09;81.31
44751;BME280;30477;48.224;11.470;2023-05-02T03:10:30;96167.19;;;9.09;81.58
44751;BME280;30477;48.224;11.470;2023-05-02T03:12:57;96176.13;;;9.05;81.24
44751;BME280;30477;48.224;11.470;2023-05-02T03:18:07;96178.09;;;8.91;81.42
44751;BME280;30477;48.224;11.470;2023-05-02T03:20:32;96167.34;;;8.86;81.65
44751;BME280;30477;48.224;11.470;2023-05-02T03:22:57;96175.59;;;8.80;81.58
44751;BME280;30477;48.224;11.470;2023-05-02T03:25:23;96179.59;;;8.73;81.67
44751;BME280;30477;48.224;11.470;2023-05-02T03:27:48;96179.81;;;8.81;82.23
44751;BME280;30477;48.224;11.470;2023-05-02T03:30:13;96179.69;;;8.83;82.27
44751;BME280;30477;48.224;11.470;2023-05-02T03:32:39;96184.03;;;8.82;82.11
44751;BME280;30477;48.224;11.470;2023-05-02T03:35:04;96184.28;;;8.79;82.28
44751;BME280;30477;48.224;11.470;2023-05-02T03:37:30;96184.38;;;8.78;82.10
44751;BME280;30477;48.224;11.470;2023-05-02T03:39:55;96185.47;;;8.75;82.01
44751;BME280;30477;48.224;11.470;2023-05-02T03:42:20;96190.81;;;8.83;82.27
44751;BME280;30477;48.224;11.470;2023-05-02T03:44:46;96191.78;;;8.82;82.22
44751;BME280;30477;48.224;11.470;2023-05-02T03:47:11;96195.56;;;8.78;82.17
44751;BME280;30477;48.224;11.470;2023-05-02T03:49:38;96195.78;;;8.75;82.06
44751;BME280;30477;48.224;11.470;2023-05-02T03:52:04;96190.88;;;8.72;82.29
44751;BME280;30477;48.224;11.470;2023-05-02T03:54:32;96199.56;;;8.71;82.24
44751;BME280;30477;48.224;11.470;2023-05-02T03:56:57;96200.91;;;8.65;81.98
44751;BME280;30477;48.224;11.470;2023-05-02T03:59:23;96205.22;;;8.65;82.32
44751;BME280;30477;48.224;11.470;2023-05-02T04:01:49;96204.19;;;8.67;82.21
44751;BME280;30477;48.224;11.470;2023-05-02T04:04:15;96208.44;;;8.57;82.19
44751;BME280;30477;48.224;11.470;2023-05-02T04:06:40;96206.78;;;8.56;82.16
44751;BME280;30477;48.224;11.470;2023-05-02T04:09:06;96212.22;;;8.53;82.10
44751;BME280;30477;48.224;11.470;2023-05-02T04:11:31;96222.97;;;8.58;82.54
44751;BME280;30477;48.224;11.470;2023-05-02T04:13:57;96223.66;;;8.60;82.37
44751;BME280;30477;48.224;11.470;2023-05-02T04:16:22;96223.53;;;8.62;82.70
44751;BME280;30477;48.224;11.470;2023-05-02T04:18:47;96228.09;;;8.69;82.63
44751;BME280;30477;48.224;11.470;2023-05-02T04:21:12;96223.47;;;8.73;82.31
44751;BME280;30477;48.224;11.470;2023-05-02T04:23:38;96221.38;;;8.78;82.50
44751;BME280;30477;48.224;11.470;2023-05-02T04:26:04;96224.63;;;8.80;82.23
44751;BME280;30477;48.224;11.470;2023-05-02T04:28:30;96230.03;;;8.77;82.04
44751;BME280;30477;48.224;11.470;2023-05-02T04:30:55;96233.63;;;8.86;82.42
44751;BME280;30477;48.224;11.470;2023-05-02T04:33:21;96233.50;;;8.87;82.10
44751;BME280;30477;48.224;11.470;2023-05-02T04:35:47;96234.66;;;8.94;82.12
44751;BME280;30477;48.224;11.470;2023-05-02T04:38:13;96239.94;;;8.93;82.02
44751;BME280;30477;48.224;11.470;2023-05-02T04:40:39;96236.84;;;8.99;81.95
44751;BME280;30477;48.224;11.470;2023-05-02T04:43:04;96243.53;;;9.02;81.93
44751;BME280;30477;48.224;11.470;2023-05-02T04:45:29;96239.81;;;9.16;82.15
44751;BME280;30477;48.224;11.470;2023-05-02T04:47:55;96251.16;;;9.24;82.03
44751;BME280;30477;48.224;11.470;2023-05-02T04:50:20;96251.44;;;9.31;82.09
44751;BME280;30477;48.224;11.470;2023-05-02T04:52:46;96260.72;;;9.33;81.83
44751;BME280;30477;48.224;11.470;2023-05-02T04:55:11;96254.91;;;9.41;81.77
44751;BME280;30477;48.224;11.470;2023-05-02T04:57:37;96261.41;;;9.35;80.96
44751;BME280;30477;48.224;11.470;2023-05-02T05:00:04;96265.53;;;9.48;81.42
44751;BME280;30477;48.224;11.470;2023-05-02T05:02:30;96268.81;;;9.50;80.59
44751;BME280;30477;48.224;11.470;2023-05-02T05:04:55;96265.91;;;9.64;80.75
44751;BME280;30477;48.224;11.470;2023-05-02T05:07:20;96269.31;;;9.65;80.25
44751;BME280;30477;48.224;11.470;2023-05-02T05:09:46;96277.34;;;9.71;80.66
44751;BME280;30477;48.224;11.470;2023-05-02T05:12:11;96273.34;;;9.88;80.45
44751;BME280;30477;48.224;11.470;2023-05-02T05:14:37;96277.59;;;9.99;79.84
44751;BME280;30477;48.224;11.470;2023-05-02T05:17:02;96282.13;;;10.07;79.55
44751;BME280;30477;48.224;11.470;2023-05-02T05:19:27;96280.50;;;10.06;79.50
44751;BME280;30477;48.224;11.470;2023-05-02T05:21:53;96282.69;;;10.10;79.35
44751;BME280;30477;48.224;11.470;2023-05-02T05:24:18;96286.50;;;10.16;79.08
44751;BME280;30477;48.224;11.470;2023-05-02T05:26:43;96284.44;;;10.10;78.66
44751;BME280;30477;48.224;11.470;2023-05-02T05:29:09;96288.13;;;10.17;78.97
44751;BME280;30477;48.224;11.470;2023-05-02T05:31:34;96299.38;;;10.37;78.64
44751;BME280;30477;48.224;11.470;2023-05-02T05:33:59;96295.72;;;10.49;78.85
44751;BME280;30477;48.224;11.470;2023-05-02T05:36:26;96296.44;;;10.61;77.91
44751;BME280;30477;48.224;11.470;2023-05-02T05:38:52;96305.72;;;10.73;78.07
44751;BME280;30477;48.224;11.470;2023-05-02T05:41:17;96306.53;;;10.74;77.65
44751;BME280;30477;48.224;11.470;2023-05-02T05:43:42;96308.16;;;10.65;77.28
44751;BME280;30477;48.224;11.470;2023-05-02T05:46:08;96310.63;;;10.96;78.04
44751;BME280;30477;48.224;11.470;2023-05-02T05:48:33;96307.91;;;10.97;77.05
44751;BME280;30477;48.224;11.470;2023-05-02T05:51:03;96311.84;;;11.31;76.78
44751;BME280;30477;48.224;11.470;2023-05-02T05:53:29;96320.69;;;11.48;76.37
44751;BME280;30477;48.224;11.470;2023-05-02T05:55:54;96314.06;;;11.73;76.03
44751;BME280;30477;48.224;11.470;2023-05-02T05:58:20;96306.66;;;11.88;76.12
44751;BME280;30477;48.224;11.470;2023-05-02T06:00:45;96305.00;;;11.96;74.77
44751;BME280;30477;48.224;11.470;2023-05-02T06:03:10;96312.81;;;11.87;74.57
44751;BME280;30477;48.224;11.470;2023-05-02T06:05:36;96313.63;;;11.87;74.72
44751;BME280;30477;48.224;11.470;2023-05-02T06:08:01;96315.69;;;11.84;73.81
44751;BME280;30477;48.224;11.470;2023-05-02T06:10:27;96319.94;;;11.75;74.01
44751;BME280;30477;48.224;11.470;2023-05-02T06:12:52;96327.72;;;11.75;73.73
44751;BME280;30477;48.224;11.470;2023-05-02T06:15:17;96330.13;;;11.96;74.30
44751;BME280;30477;48.224;11.470;2023-05-02T06:17:43;96338.97;;;12.03;73.71
44751;BME280;30477;48.224;11.470;2023-05-02T06:20:09;96339.94;;;12.02;73.83
44751;BME280;30477;48.224;11.470;2023-05-02T06:22:35;96345.50;;;12.17;73.93
44751;BME280;30477;48.224;11.470;2023-05-02T06:25:00;96343.78;;;11.98;73.47
44751;BME280;30477;48.224;11.470;2023-05-02T06:27:26;96345.50;;;12.07;73.54
44751;BME280;30477;48.224;11.470;2023-05-02T06:29:52;96347.31;;;12.07;73.33
44751;BME280;30477;48.224;11.470;2023-05-02T06:32:17;96345.44;;;11.79;72.50
44751;BME280;30477;48.224;11.470;2023-05-02T06:34:43;96356.94;;;11.67;73.32
44751;BME280;30477;48.224;11.470;2023-05-02T06:37:08;96359.38;;;11.78;73.50
44751;BME280;30477;48.224;11.470;2023-05-02T06:39:33;96362.66;;;11.81;73.57
44751;BME280;30477;48.224;11.470;2023-05-02T06:41:59;96363.06;;;11.76;73.76
44751;BME280;30477;48.224;11.470;2023-05-02T06:44:25;96364.00;;;11.85;73.85
44751;BME280;30477;48.224;11.470;2023-05-02T06:46:50;96361.94;;;11.98;73.96
44751;BME280;30477;48.224;11.470;2023-05-02T06:49:16;96358.13;;;12.30;74.02
44751;BME280;30477;48.224;11.470;2023-05-02T06:51:42;96355.06;;;12.44;73.49
44751;BME280;30477;48.224;11.470;2023-05-02T06:54:07;96369.31;;;12.40;72.91
44751;BME280;30477;48.224;11.470;2023-05-02T06:56:33;96366.81;;;12.48;73.09
44751;BME280;30477;48.224;11.470;2023-05-02T06:58:58;96372.00;;;12.48;72.63
44751;BME280;30477;48.224;11.470;2023-05-02T07:01:24;96370.59;;;12.54;72.73
44751;BME280;30477;48.224;11.470;2023-05-02T07:03:49;96374.78;;;12.37;72.18
44751;BME280;30477;48.224;11.470;2023-05-02T07:06:15;96384.97;;;12.11;72.34
44751;BME280;30477;48.224;11.470;2023-05-02T07:08:40;96386.75;;;12.10;72.50
44751;BME280;30477;48.224;11.470;2023-05-02T07:11:06;96387.19;;;12.06;72.59
44751;BME280;30477;48.224;11.470;2023-05-02T07:13:31;96394.03;;;11.87;72.75
44751;BME280;30477;48.224;11.470;2023-05-02T07:15:56;96396.25;;;11.72;72.60
44751;BME280;30477;48.224;11.470;2023-05-02T07:18:22;96393.22;;;11.67;72.89
44751;BME280;30477;48.224;11.470;2023-05-02T07:20:48;96394.03;;;11.77;73.27
44751;BME280;30477;48.224;11.470;2023-05-02T07:23:14;96389.69;;;11.78;73.48
44751;BME280;30477;48.224;11.470;2023-05-02T07:25:39;96382.69;;;11.98;73.19
44751;BME280;30477;48.224;11.470;2023-05-02T07:28:05;96395.41;;;12.01;73.03
44751;BME280;30477;48.224;11.470;2023-05-02T07:30:31;96380.34;;;12.14;73.12
44751;BME280;30477;48.224;11.470;2023-05-02T07:32:56;96383.28;;;12.29;73.10
44751;BME280;30477;48.224;11.470;2023-05-02T07:35:22;96377.75;;;12.42;72.53
44751;BME280;30477;48.224;11.470;2023-05-02T07:37:47;96386.41;;;12.33;72.79
44751;BME280;30477;48.224;11.470;2023-05-02T07:40:12;96388.53;;;12.47;72.64
44751;BME280;30477;48.224;11.470;2023-05-02T07:42:38;96387.78;;;12.65;72.63
44751;BME280;30477;48.224;11.470;2023-05-02T07:45:05;96383.28;;;12.85;72.54
44751;BME280;30477;48.224;11.470;2023-05-02T07:47:31;96386.00;;;13.29;72.12
44751;BME280;30477;48.224;11.470;2023-05-02T07:49:56;96383.81;;;13.24;71.17
44751;BME280;30477;48.224;11.470;2023-05-02T07:52:21;96385.97;;;13.65;71.14
44751;BME280;30477;48.224;11.470;2023-05-02T07:54:47;96393.09;;;13.80;70.23
44751;BME280;30477;48.224;11.470;2023-05-02T07:57:14;96399.81;;;14.09;70.00
44751;BME280;30477;48.224;11.470;2023-05-02T07:59:39;96400.09;;;14.06;69.23
44751;BME280;30477;48.224;11.470;2023-05-02T08:02:05;96404.69;;;14.12;68.61
44751;BME280;30477;48.224;11.470;2023-05-02T08:04:31;96399.47;;;14.12;68.24
44751;BME280;30477;48.224;11.470;2023-05-02T08:06:57;96406.72;;;14.27;67.85
44751;BME280;30477;48.224;11.470;2023-05-02T08:09:22;96405.34;;;14.14;68.24
44751;BME280;30477;48.224;11.470;2023-05-02T08:11:47;96409.06;;;13.86;67.87
44751;BME280;30477;48.224;11.470;2023-05-02T08:14:14;96407.84;;;13.72;68.46
44751;BME280;30477;48.224;11.470;2023-05-02T08:16:40;96413.03;;;13.72;68.48
44751;BME280;30477;48.224;11.470;2023-05-02T08:19:05;96409.63;;;13.53;68.15
44751;BME280;30477;48.224;11.470;2023-05-02T08:21:31;96408.56;;;13.82;68.68
44751;BME280;30477;48.224;11.470;2023-05-02T08:23:57;96410.94;;;14.28;68.10
44751;BME280;30477;48.224;11.470;2023-05-02T08:26:22;96409.41;;;14.43;67.29
44751;BME280;30477;48.224;11.470;2023-05-02T08:28:50;96403.81;;;14.56;66.66
44751;BME280;30477;48.224;11.470;2023-05-02T08:31:15;96412.13;;;14.59;66.56
44751;BME280;30477;48.224;11.470;2023-05-02T08:33:40;96406.09;;;14.33;65.93
44751;BME280;30477;48.224;11.470;2023-05-02T08:36:10;96413.16;;;13.88;66.64
44751;BME280;30477;48.224;11.470;2023-05-02T08:38:36;96405.03;;;13.91;66.90
44751;BME280;30477;48.224;11.470;2023-05-02T08:41:01;96412.38;;;13.96;66.67
44751;BME280;30477;48.224;11.470;2023-05-02T08:43:28;96414.16;;;14.13;66.20
44751;BME280;30477;48.224;11.470;2023-05-02T08:45:58;96412.78;;;14.35;66.29
44751;BME280;30477;48.224;11.470;2023-05-02T08:48:26;96419.94;;;14.59;65.68
44751;BME280;30477;48.224;11.470;2023-05-02T08:50:52;96420.09;;;14.58;65.69
44751;BME280;30477;48.224;11.470;2023-05-02T08:53:18;96424.19;;;14.60;65.35
44751;BME280;30477;48.224;11.470;2023-05-02T08:55:44;96424.59;;;14.21;65.54
44751;BME280;30477;48.224;11.470;2023-05-02T08:58:10;96425.81;;;14.35;65.63
44751;BME280;30477;48.224;11.470;2023-05-02T09:00:40;96425.72;;;14.45;64.69
44751;BME280;30477;48.224;11.470;2023-05-02T09:03:19;96428.44;;;14.61;65.41
44751;BME280;30477;48.224;11.470;2023-05-02T09:05:52;96428.13;;;14.73;64.88
44751;BME280;30477;48.224;11.470;2023-05-02T09:08:22;96430.25;;;14.77;64.81
44751;BME280;30477;48.224;11.470;2023-05-02T09:10:48;96422.66;;;14.92;64.29
44751;BME280;30477;48.224;11.470;2023-05-02T09:13:37;96434.22;;;14.90;63.45
44751;BME280;30477;48.224;11.470;2023-05-02T09:16:17;96437.63;;;14.90;63.74
44751;BME280;30477;48.224;11.470;2023-05-02T09:18:49;96448.53;;;14.86;63.16
44751;BME280;30477;48.224;11.470;2023-05-02T09:21:17;96450.31;;;14.77;62.85
44751;BME280;30477;48.224;11.470;2023-05-02T09:23:54;96448.69;;;14.84;63.60
44751;BME280;30477;48.224;11.470;2023-05-02T09:28:52;96448.66;;;14.76;64.22
44751;BME280;30477;48.224;11.470;2023-05-02T09:31:19;96450.41;;;14.67;64.65
44751;BME280;30477;48.224;11.470;2023-05-02T09:33:46;96447.09;;;14.91;65.25
44751;BME280;30477;48.224;11.470;2023-05-02T09:36:16;96452.28;;;14.83;64.29
44751;BME280;30477;48.224;11.470;2023-05-02T09:38:42;96456.88;;;14.89;64.37
44751;BME280;30477;48.224;11.470;2023-05-02T09:41:09;96451.59;;;14.73;64.27
44751;BME280;30477;48.224;11.470;2023-05-02T09:43:34;96454.94;;;14.91;64.84
44751;BME280;30477;48.224;11.470;2023-05-02T09:46:02;96452.91;;;14.77;64.65
44751;BME280;30477;48.224;11.470;2023-05-02T09:48:28;96461.03;;;14.74;64.67
44751;BME280;30477;48.224;11.470;2023-05-02T09:50:54;96450.59;;;14.74;64.46
44751;BME280;30477;48.224;11.470;2023-05-02T09:53:20;96454.66;;;14.68;64.37
44751;BME280;30477;48.224;11.470;2023-05-02T09:55:46;96459.59;;;14.79;64.34
44751;BME280;30477;48.224;11.470;2023-05-02T09:58:22;96453.22;;;14.74;63.44
44751;BME280;30477;48.224;11.470;2023-05-02T10:00:48;96452.16;;;14.58;63.77
44751;BME280;30477;48.224;11.470;2023-05-02T10:03:16;96458.03;;;14.34;63.51
44751;BME280;30477;48.224;11.470;2023-05-02T10:05:44;96453.97;;;14.40;63.76
44751;BME280;30477;48.224;11.470;2023-05-02T10:08:11;96458.44;;;14.21;63.87
44751;BME280;30477;48.224;11.470;2023-05-02T10:10:49;96465.53;;;14.11;64.75
44751;BME280;30477;48.224;11.470;2023-05-02T10:13:15;96459.50;;;14.11;65.08
44751;BME280;30477;48.224;11.470;2023-05-02T10:15:44;96460.16;;;14.13;65.12
44751;BME280;30477;48.224;11.470;2023-05-02T10:18:21;96470.97;;;14.00;66.26
44751;BME280;30477;48.224;11.470;2023-05-02T10:20:57;96466.16;;;14.05;66.25
44751;BME280;30477;48.224;11.470;2023-05-02T10:23:29;96469.69;;;14.04;66.78
44751;BME280;30477;48.224;11.470;2023-05-02T10:25:56;96473.75;;;13.98;67.03
44751;BME280;30477;48.224;11.470;2023-05-02T10:28:22;96468.47;;;13.90;68.09
44751;BME280;30477;48.224;11.470;2023-05-02T10:30:49;96472.56;;;13.93;68.34
44751;BME280;30477;48.224;11.470;2023-05-02T10:33:16;96467.41;;;13.83;68.28
44751;BME280;30477;48.224;11.470;2023-05-02T10:35:44;96468.13;;;13.67;68.65
44751;BME280;30477;48.224;11.470;2023-05-02T10:38:18;96470.19;;;13.64;68.60
44751;BME280;30477;48.224;11.470;2023-05-02T10:41:14;96464.25;;;13.71;69.61
44751;BME280;30477;48.224;11.470;2023-05-02T10:43:40;96473.53;;;13.74;69.28
44751;BME280;30477;48.224;11.470;2023-05-02T10:46:33;96468.53;;;13.80;69.24
44751;BME280;30477;48.224;11.470;2023-05-02T10:49:04;96467.81;;;13.70;69.32
44751;BME280;30477;48.224;11.470;2023-05-02T10:51:34;96460.38;;;13.75;69.27
44751;BME280;30477;48.224;11.470;2023-05-02T10:54:20;96467.72;;;13.62;68.63
44751;BME280;30477;48.224;11.470;2023-05-02T10:59:32;96462.97;;;13.57;69.34
44751;BME280;30477;48.224;11.470;2023-05-02T11:01:58;96467.81;;;13.70;69.65
44751;BME280;30477;48.224;11.470;2023-05-02T11:04:23;96462.53;;;13.80;69.49
44751;BME280;30477;48.224;11.470;2023-05-02T11:11:49;96452.13;;;13.80;68.97
44751;BME280;30477;48.224;11.470;2023-05-02T11:17:14;96453.84;;;14.15;68.37
44751;BME280;30477;48.224;11.470;2023-05-02T11:24:43;96442.97;;;14.20;66.92
44751;BME280;30477;48.224;11.470;2023-05-02T11:30:01;96448.06;;;14.04;66.20
44751;BME280;30477;48.224;11.470;2023-05-02T11:35:26;96442.84;;;14.30;65.60
44751;BME280;30477;48.224;11.470;2023-05-02T11:37:55;96443.25;;;14.17;65.07
44751;BME280;30477;48.224;11.470;2023-05-02T11:40:22;96454.78;;;14.32;65.71
44751;BME280;30477;48.224;11.470;2023-05-02T11:42:48;96447.81;;;14.41;65.85
44751;BME280;30477;48.224;11.470;2023-05-02T11:45:13;96449.47;;;14.50;65.53
44751;BME280;30477;48.224;11.470;2023-05-02T11:47:40;96452.09;;;14.50;65.43
44751;BME280;30477;48.224;11.470;2023-05-02T11:50:06;96455.63;;;14.67;65.57
44751;BME280;30477;48.224;11.470;2023-05-02T11:52:41;96457.69;;;14.55;64.55
44751;BME280;30477;48.224;11.470;2023-05-02T11:55:11;96455.03;;;14.47;63.76
44751;BME280;30477;48.224;11.470;2023-05-02T11:57:37;96448.78;;;14.40;63.81
44751;BME280;30477;48.224;11.470;2023-05-02T12:00:03;96453.75;;;14.51;63.55
44751;BME280;30477;48.224;11.470;2023-05-02T12:02:39;96460.22;;;14.47;63.89
44751;BME280;30477;48.224;11.470;2023-05-02T12:05:10;96457.69;;;14.55;63.95
44751;BME280;30477;48.224;11.470;2023-05-02T12:07:41;96455.09;;;14.55;63.53
44751;BME280;30477;48.224;11.470;2023-05-02T12:10:07;96446.66;;;14.61;63.20
44751;BME280;30477;48.224;11.470;2023-05-02T12:12:33;96451.88;;;14.61;63.01
44751;BME280;30477;48.224;11.470;2023-05-02T12:15:10;96460.66;;;14.60;62.74
44751;BME280;30477;48.224;11.470;2023-05-02T12:17:36;96462.97;;;14.64;62.70
44751;BME280;30477;48.224;11.470;2023-05-02T12:20:07;96460.69;;;14.69;62.55
44751;BME280;30477;48.224;11.470;2023-05-02T12:22:33;96455.81;;;14.74;62.32
44751;BME280;30477;48.224;11.470;2023-05-02T12:24:59;96459.88;;;14.68;61.84
44751;BME280;30477;48.224;11.470;2023-05-02T12:27:25;96461.31;;;14.63;61.42
44751;BME280;30477;48.224;11.470;2023-05-02T12:29:51;96458.69;;;14.63;61.65
44751;BME280;30477;48.224;11.470;2023-05-02T12:32:30;96455.00;;;14.73;61.88
44751;BME280;30477;48.224;11.470;2023-05-02T12:34:57;96457.13;;;14.78;62.29
44751;BME280;30477;48.224;11.470;2023-05-02T12:37:23;96466.84;;;14.68;62.60
44751;BME280;30477;48.224;11.470;2023-05-02T12:39:50;96460.22;;;14.47;63.43
44751;BME280;30477;48.224;11.470;2023-05-02T12:42:23;96462.00;;;14.47;64.07
44751;BME280;30477;48.224;11.470;2023-05-02T12:44:50;96463.06;;;14.36;64.62
44751;BME280;30477;48.224;11.470;2023-05-02T12:47:17;96456.44;;;14.41;65.88
44751;BME280;30477;48.224;11.470;2023-05-02T12:49:53;96453.97;;;14.40;65.83
44751;BME280;30477;48.224;11.470;2023-05-02T12:52:20;96458.56;;;14.46;66.19
44751;BME280;30477;48.224;11.470;2023-05-02T12:54:46;96453.56;;;14.53;66.49
44751;BME280;30477;48.224;11.470;2023-05-02T12:57:31;96462.13;;;14.63;66.63
44751;BME280;30477;48.224;11.470;2023-05-02T12:59:57;96458.38;;;14.66;66.66
44751;BME280;30477;48.224;11.470;2023-05-02T13:02:22;96464.06;;;14.61;66.87
44751;BME280;30477;48.224;11.470;2023-05-02T13:04:48;96458.38;;;14.57;67.28
44751;BME280;30477;48.224;11.470;2023-05-02T13:07:13;96459.75;;;14.52;67.24
44751;BME280;30477;48.224;11.470;2023-05-02T13:09:38;96451.94;;;14.52;67.21
44751;BME280;30477;48.224;11.470;2023-05-02T13:12:04;96457.09;;;14.44;67.83
44751;BME280;30477;48.224;11.470;2023-05-02T13:14:30;96459.72;;;14.44;67.73
44751;BME280;30477;48.224;11.470;2023-05-02T13:16:55;96461.47;;;14.35;67.82
44751;BME280;30477;48.224;11.470;2023-05-02T13:19:21;96464.88;;;14.35;67.69
44751;BME280;30477;48.224;11.470;2023-05-02T13:21:47;96474.09;;;14.30;67.40
44751;BME280;30477;48.224;11.470;2023-05-02T13:24:12;96465.34;;;14.31;66.94
44751;BME280;30477;48.224;11.470;2023-05-02T13:26:39;96472.78;;;14.26;66.87
44751;BME280;30477;48.224;11.470;2023-05-02T13:29:04;96475.03;;;14.20;67.00
44751;BME280;30477;48.224;11.470;2023-05-02T13:31:30;96480.22;;;14.20;66.51
44751;BME280;30477;48.224;11.470;2023-05-02T13:33:55;96480.22;;;14.20;66.84
44751;BME280;30477;48.224;11.470;2023-05-02T13:36:20;96480.22;;;14.20;66.60
44751;BME280;30477;48.224;11.470;2023-05-02T13:38:46;96481.16;;;14.11;66.19
44751;BME280;30477;48.224;11.470;2023-05-02T13:41:11;96475.72;;;14.05;65.89